sensor_id;sensor_type;location;lat;lon;timestamp;P1;durP1;ratioP1;P2;durP2;ratioP2
59938;SDS011;45801;51.810;19.444;2023-02-28T00:00:37;15.80;;;11.10;;
59938;SDS011;45801;51.810;19.444;2023-02-28T00:03:16;19.70;;;11.20;;
59938;SDS011;45801;51.810;19.444;2023-02-28T00:05:43;16.10;;;9.50;;
59938;SDS011;45801;51.810;19.444;2023-02-28T00:08:10;15.70;;;8.60;;
59938;SDS011;45801;51.810;19.444;2023-02-28T00:10:37;15.10;;;7.80;;
59938;SDS011;45801;51.810;19.444;2023-02-28T00:13:05;13.50;;;7.30;;
59938;SDS011;45801;51.810;19.444;2023-02-28T00:15:32;13.10;;;7.30;;
59938;SDS011;45801;51.810;19.444;2023-02-28T00:18:00;12.50;;;7.00;;
59938;SDS011;45801;51.810;19.444;2023-02-28T00:20:27;12.90;;;6.40;;
59938;SDS011;45801;51.810;19.444;2023-02-28T00:22:54;13.00;;;6.40;;
59938;SDS011;45801;51.810;19.444;2023-02-28T00:25:22;12.40;;;6.70;;
59938;SDS011;45801;51.810;19.444;2023-02-28T00:27:51;11.50;;;6.00;;
59938;SDS011;45801;51.810;19.444;2023-02-28T00:30:20;10.70;;;5.40;;
59938;SDS011;45801;51.810;19.444;2023-02-28T00:32:49;12.40;;;6.40;;
59938;SDS011;45801;51.810;19.444;2023-02-28T00:35:16;11.40;;;6.00;;
59938;SDS011;45801;51.810;19.444;2023-02-28T00:37:44;13.50;;;6.50;;
59938;SDS011;45801;51.810;19.444;2023-02-28T00:40:10;10.90;;;6.20;;
59938;SDS011;45801;51.810;19.444;2023-02-28T00:42:38;11.30;;;6.10;;
59938;SDS011;45801;51.810;19.444;2023-02-28T00:45:06;12.20;;;5.70;;
59938;SDS011;45801;51.810;19.444;2023-02-28T00:47:34;9.70;;;4.80;;
59938;SDS011;45801;51.810;19.444;2023-02-28T00:50:01;12.10;;;5.00;;
59938;SDS011;45801;51.810;19.444;2023-02-28T00:52:28;10.00;;;5.10;;
59938;SDS011;45801;51.810;19.444;2023-02-28T00:54:55;9.30;;;4.90;;
59938;SDS011;45801;51.810;19.444;2023-02-28T00:57:22;12.20;;;5.50;;
59938;SDS011;45801;51.810;19.444;2023-02-28T00:59:48;9.10;;;5.80;;
59938;SDS011;45801;51.810;19.444;2023-02-28T01:02:15;9.00;;;4.80;;
59938;SDS011;45801;51.810;19.444;2023-02-28T01:04:42;10.30;;;4.90;;
59938;SDS011;45801;51.810;19.444;2023-02-28T01:07:08;9.60;;;5.00;;
59938;SDS011;45801;51.810;19.444;2023-02-28T01:09:35;11.10;;;4.90;;
59938;SDS011;45801;51.810;19.444;2023-02-28T01:12:01;8.60;;;4.90;;
59938;SDS011;45801;51.810;19.444;2023-02-28T01:14:29;9.30;;;4.50;;
59938;SDS011;45801;51.810;19.444;2023-02-28T01:16:56;10.00;;;5.60;;
59938;SDS011;45801;51.810;19.444;2023-02-28T01:19:22;11.70;;;5.40;;
59938;SDS011;45801;51.810;19.444;2023-02-28T01:21:48;10.90;;;5.70;;
59938;SDS011;45801;51.810;19.444;2023-02-28T01:24:15;11.50;;;6.00;;
59938;SDS011;45801;51.810;19.444;2023-02-28T01:26:41;11.50;;;5.70;;
59938;SDS011;45801;51.810;19.444;2023-02-28T01:29:08;10.50;;;6.00;;
59938;SDS011;45801;51.810;19.444;2023-02-28T01:31:34;13.10;;;6.10;;
59938;SDS011;45801;51.810;19.444;2023-02-28T01:34:02;10.60;;;5.80;;
59938;SDS011;45801;51.810;19.444;2023-02-28T01:36:29;11.00;;;5.70;;
59938;SDS011;45801;51.810;19.444;2023-02-28T01:38:55;10.90;;;6.50;;
59938;SDS011;45801;51.810;19.444;2023-02-28T01:41:23;11.50;;;6.20;;
59938;SDS011;45801;51.810;19.444;2023-02-28T01:43:53;9.60;;;5.40;;
59938;SDS011;45801;51.810;19.444;2023-02-28T01:46:22;10.70;;;5.60;;
59938;SDS011;45801;51.810;19.444;2023-02-28T01:51:53;10.20;;;5.40;;
59938;SDS011;45801;51.810;19.444;2023-02-28T01:54:24;13.00;;;6.10;;
59938;SDS011;45801;51.810;19.444;2023-02-28T01:57:04;9.80;;;5.30;;
59938;SDS011;45801;51.810;19.444;2023-02-28T01:59:41;10.90;;;6.00;;
59938;SDS011;45801;51.810;19.444;2023-02-28T02:02:15;11.60;;;6.10;;
59938;SDS011;45801;51.810;19.444;2023-02-28T02:07:16;11.20;;;6.10;;
59938;SDS011;45801;51.810;19.444;2023-02-28T02:09:43;11.10;;;6.00;;
59938;SDS011;45801;51.810;19.444;2023-02-28T02:12:55;11.50;;;6.60;;
59938;SDS011;45801;51.810;19.444;2023-02-28T02:15:13;11.40;;;5.80;;
59938;SDS011;45801;51.810;19.444;2023-02-28T02:17:48;11.60;;;6.70;;
59938;SDS011;45801;51.810;19.444;2023-02-28T02:26:16;12.30;;;7.20;;
59938;SDS011;45801;51.810;19.444;2023-02-28T02:37:36;11.80;;;7.00;;
59938;SDS011;45801;51.810;19.444;2023-02-28T02:40:11;13.40;;;7.30;;
59938;SDS011;45801;51.810;19.444;2023-02-28T02:42:46;13.00;;;6.80;;
59938;SDS011;45801;51.810;19.444;2023-02-28T02:47:48;13.90;;;7.10;;
59938;SDS011;45801;51.810;19.444;2023-02-28T02:50:22;11.20;;;7.30;;
59938;SDS011;45801;51.810;19.444;2023-02-28T02:52:56;12.20;;;6.70;;
59938;SDS011;45801;51.810;19.444;2023-02-28T02:55:26;13.30;;;6.60;;
59938;SDS011;45801;51.810;19.444;2023-02-28T02:57:55;11.70;;;6.70;;
59938;SDS011;45801;51.810;19.444;2023-02-28T03:00:28;13.90;;;8.10;;
59938;SDS011;45801;51.810;19.444;2023-02-28T03:03:00;14.00;;;7.60;;
59938;SDS011;45801;51.810;19.444;2023-02-28T03:05:30;13.10;;;7.00;;
59938;SDS011;45801;51.810;19.444;2023-02-28T03:08:05;12.40;;;7.30;;
59938;SDS011;45801;51.810;19.444;2023-02-28T03:10:37;12.40;;;7.00;;
59938;SDS011;45801;51.810;19.444;2023-02-28T03:22:23;13.00;;;7.50;;
59938;SDS011;45801;51.810;19.444;2023-02-28T03:25:13;13.50;;;7.90;;
59938;SDS011;45801;51.810;19.444;2023-02-28T03:30:31;16.60;;;9.50;;
59938;SDS011;45801;51.810;19.444;2023-02-28T03:35:39;13.80;;;8.10;;
59938;SDS011;45801;51.810;19.444;2023-02-28T03:40:55;14.70;;;8.10;;
59938;SDS011;45801;51.810;19.444;2023-02-28T03:43:31;14.70;;;7.60;;
59938;SDS011;45801;51.810;19.444;2023-02-28T03:46:03;14.60;;;8.40;;
59938;SDS011;45801;51.810;19.444;2023-02-28T03:48:36;12.00;;;7.30;;
59938;SDS011;45801;51.810;19.444;2023-02-28T03:51:10;11.10;;;7.60;;
59938;SDS011;45801;51.810;19.444;2023-02-28T03:53:49;12.90;;;7.80;;
59938;SDS011;45801;51.810;19.444;2023-02-28T03:56:22;12.80;;;8.40;;
59938;SDS011;45801;51.810;19.444;2023-02-28T03:58:57;13.40;;;7.90;;
59938;SDS011;45801;51.810;19.444;2023-02-28T04:01:45;15.30;;;9.80;;
59938;SDS011;45801;51.810;19.444;2023-02-28T04:04:14;14.20;;;7.80;;
59938;SDS011;45801;51.810;19.444;2023-02-28T04:06:42;14.40;;;8.90;;
59938;SDS011;45801;51.810;19.444;2023-02-28T04:09:13;14.30;;;8.10;;
59938;SDS011;45801;51.810;19.444;2023-02-28T04:14:12;12.80;;;7.80;;
59938;SDS011;45801;51.810;19.444;2023-02-28T04:16:39;12.50;;;8.30;;
59938;SDS011;45801;51.810;19.444;2023-02-28T04:19:08;14.10;;;8.90;;
59938;SDS011;45801;51.810;19.444;2023-02-28T04:21:37;12.30;;;7.60;;
59938;SDS011;45801;51.810;19.444;2023-02-28T04:24:06;13.50;;;7.70;;
59938;SDS011;45801;51.810;19.444;2023-02-28T04:26:35;15.60;;;8.30;;
59938;SDS011;45801;51.810;19.444;2023-02-28T04:29:03;12.40;;;7.80;;
59938;SDS011;45801;51.810;19.444;2023-02-28T04:31:31;14.00;;;8.50;;
59938;SDS011;45801;51.810;19.444;2023-02-28T04:33:58;15.40;;;8.50;;
59938;SDS011;45801;51.810;19.444;2023-02-28T04:36:24;15.90;;;8.30;;
59938;SDS011;45801;51.810;19.444;2023-02-28T04:38:51;14.70;;;9.10;;
59938;SDS011;45801;51.810;19.444;2023-02-28T04:41:18;13.70;;;8.00;;
59938;SDS011;45801;51.810;19.444;2023-02-28T04:43:46;15.30;;;8.20;;
59938;SDS011;45801;51.810;19.444;2023-02-28T04:46:13;12.50;;;7.90;;
59938;SDS011;45801;51.810;19.444;2023-02-28T04:48:39;12.20;;;7.60;;
59938;SDS011;45801;51.810;19.444;2023-02-28T04:51:07;11.60;;;6.20;;
59938;SDS011;45801;51.810;19.444;2023-02-28T04:53:36;15.30;;;7.80;;
59938;SDS011;45801;51.810;19.444;2023-02-28T04:56:05;12.10;;;7.80;;
59938;SDS011;45801;51.810;19.444;2023-02-28T04:58:34;13.00;;;7.40;;
59938;SDS011;45801;51.810;19.444;2023-02-28T05:01:01;12.30;;;7.20;;
59938;SDS011;45801;51.810;19.444;2023-02-28T05:03:30;12.40;;;6.80;;
59938;SDS011;45801;51.810;19.444;2023-02-28T05:05:57;12.40;;;7.00;;
59938;SDS011;45801;51.810;19.444;2023-02-28T05:08:23;11.20;;;7.00;;
59938;SDS011;45801;51.810;19.444;2023-02-28T05:10:51;13.80;;;7.60;;
59938;SDS011;45801;51.810;19.444;2023-02-28T05:13:17;11.50;;;6.50;;
59938;SDS011;45801;51.810;19.444;2023-02-28T05:15:47;13.40;;;7.00;;
59938;SDS011;45801;51.810;19.444;2023-02-28T05:18:14;15.30;;;8.60;;
59938;SDS011;45801;51.810;19.444;2023-02-28T05:20:40;109.50;;;50.00;;
59938;SDS011;45801;51.810;19.444;2023-02-28T05:23:08;81.80;;;38.30;;
59938;SDS011;45801;51.810;19.444;2023-02-28T05:25:38;94.00;;;44.00;;
59938;SDS011;45801;51.810;19.444;2023-02-28T05:28:05;90.30;;;48.70;;
59938;SDS011;45801;51.810;19.444;2023-02-28T05:30:32;123.80;;;63.30;;
59938;SDS011;45801;51.810;19.444;2023-02-28T05:32:59;111.60;;;57.40;;
59938;SDS011;45801;51.810;19.444;2023-02-28T05:35:26;88.10;;;47.30;;
59938;SDS011;45801;51.810;19.444;2023-02-28T05:37:53;80.90;;;44.00;;
59938;SDS011;45801;51.810;19.444;2023-02-28T05:40:20;66.40;;;35.70;;
59938;SDS011;45801;51.810;19.444;2023-02-28T05:42:46;63.10;;;33.90;;
59938;SDS011;45801;51.810;19.444;2023-02-28T05:45:13;42.80;;;25.00;;
59938;SDS011;45801;51.810;19.444;2023-02-28T05:47:40;35.10;;;20.40;;
59938;SDS011;45801;51.810;19.444;2023-02-28T05:50:06;36.30;;;22.70;;
59938;SDS011;45801;51.810;19.444;2023-02-28T05:52:35;58.40;;;31.50;;
59938;SDS011;45801;51.810;19.444;2023-02-28T05:55:02;87.70;;;42.20;;
59938;SDS011;45801;51.810;19.444;2023-02-28T05:57:29;108.10;;;43.50;;
59938;SDS011;45801;51.810;19.444;2023-02-28T05:59:56;104.80;;;38.20;;
59938;SDS011;45801;51.810;19.444;2023-02-28T06:02:22;103.20;;;38.60;;
59938;SDS011;45801;51.810;19.444;2023-02-28T06:04:49;99.10;;;33.10;;
59938;SDS011;45801;51.810;19.444;2023-02-28T06:07:15;76.40;;;26.90;;
59938;SDS011;45801;51.810;19.444;2023-02-28T06:09:43;77.80;;;25.70;;
59938;SDS011;45801;51.810;19.444;2023-02-28T06:12:10;51.00;;;21.10;;
59938;SDS011;45801;51.810;19.444;2023-02-28T06:14:36;44.90;;;17.20;;
59938;SDS011;45801;51.810;19.444;2023-02-28T06:17:03;55.60;;;22.00;;
59938;SDS011;45801;51.810;19.444;2023-02-28T06:19:32;62.70;;;23.20;;
59938;SDS011;45801;51.810;19.444;2023-02-28T06:22:00;66.70;;;27.60;;
59938;SDS011;45801;51.810;19.444;2023-02-28T06:24:27;53.60;;;23.10;;
59938;SDS011;45801;51.810;19.444;2023-02-28T06:26:54;60.70;;;26.40;;
59938;SDS011;45801;51.810;19.444;2023-02-28T06:29:21;46.30;;;22.60;;
59938;SDS011;45801;51.810;19.444;2023-02-28T06:31:47;28.00;;;14.00;;
59938;SDS011;45801;51.810;19.444;2023-02-28T06:34:14;21.90;;;10.50;;
59938;SDS011;45801;51.810;19.444;2023-02-28T06:36:43;16.00;;;8.60;;
59938;SDS011;45801;51.810;19.444;2023-02-28T06:39:09;14.60;;;9.10;;
59938;SDS011;45801;51.810;19.444;2023-02-28T06:41:36;15.00;;;7.70;;
59938;SDS011;45801;51.810;19.444;2023-02-28T06:44:04;15.30;;;8.60;;
59938;SDS011;45801;51.810;19.444;2023-02-28T06:46:38;14.80;;;8.80;;
59938;SDS011;45801;51.810;19.444;2023-02-28T06:49:06;14.00;;;8.80;;
59938;SDS011;45801;51.810;19.444;2023-02-28T06:51:35;15.00;;;8.70;;
59938;SDS011;45801;51.810;19.444;2023-02-28T06:54:07;15.80;;;8.70;;
59938;SDS011;45801;51.810;19.444;2023-02-28T06:56:35;18.70;;;9.30;;
59938;SDS011;45801;51.810;19.444;2023-02-28T06:59:03;15.20;;;8.80;;
59938;SDS011;45801;51.810;19.444;2023-02-28T07:01:30;15.80;;;8.60;;
59938;SDS011;45801;51.810;19.444;2023-02-28T07:03:58;16.30;;;9.50;;
59938;SDS011;45801;51.810;19.444;2023-02-28T07:06:26;16.30;;;9.80;;
59938;SDS011;45801;51.810;19.444;2023-02-28T07:08:53;19.70;;;10.80;;
59938;SDS011;45801;51.810;19.444;2023-02-28T07:11:21;18.20;;;11.20;;
59938;SDS011;45801;51.810;19.444;2023-02-28T07:13:52;18.20;;;9.90;;
59938;SDS011;45801;51.810;19.444;2023-02-28T07:16:19;14.80;;;8.70;;
59938;SDS011;45801;51.810;19.444;2023-02-28T07:18:48;17.90;;;9.90;;
59938;SDS011;45801;51.810;19.444;2023-02-28T07:21:15;14.10;;;9.10;;
59938;SDS011;45801;51.810;19.444;2023-02-28T07:23:41;14.40;;;8.40;;
59938;SDS011;45801;51.810;19.444;2023-02-28T07:26:12;18.40;;;9.80;;
59938;SDS011;45801;51.810;19.444;2023-02-28T07:28:41;14.40;;;8.80;;
59938;SDS011;45801;51.810;19.444;2023-02-28T07:31:09;14.70;;;8.90;;
59938;SDS011;45801;51.810;19.444;2023-02-28T07:33:36;15.40;;;9.10;;
59938;SDS011;45801;51.810;19.444;2023-02-28T07:36:04;16.20;;;8.10;;
59938;SDS011;45801;51.810;19.444;2023-02-28T07:38:35;16.30;;;8.80;;
59938;SDS011;45801;51.810;19.444;2023-02-28T07:41:03;13.30;;;7.10;;
59938;SDS011;45801;51.810;19.444;2023-02-28T07:43:31;12.30;;;6.90;;
59938;SDS011;45801;51.810;19.444;2023-02-28T07:46:02;14.10;;;7.40;;
59938;SDS011;45801;51.810;19.444;2023-02-28T07:48:30;12.40;;;6.80;;
59938;SDS011;45801;51.810;19.444;2023-02-28T07:50:57;14.70;;;7.10;;
59938;SDS011;45801;51.810;19.444;2023-02-28T07:53:25;11.90;;;6.30;;
59938;SDS011;45801;51.810;19.444;2023-02-28T07:55:56;10.80;;;6.40;;
59938;SDS011;45801;51.810;19.444;2023-02-28T07:58:23;10.80;;;5.90;;
59938;SDS011;45801;51.810;19.444;2023-02-28T08:00:51;12.10;;;6.50;;
59938;SDS011;45801;51.810;19.444;2023-02-28T08:03:18;12.20;;;7.20;;
59938;SDS011;45801;51.810;19.444;2023-02-28T08:05:46;12.00;;;6.70;;
59938;SDS011;45801;51.810;19.444;2023-02-28T08:08:14;10.40;;;6.10;;
59938;SDS011;45801;51.810;19.444;2023-02-28T08:10:41;13.30;;;7.10;;
59938;SDS011;45801;51.810;19.444;2023-02-28T08:13:08;13.80;;;6.90;;
59938;SDS011;45801;51.810;19.444;2023-02-28T08:15:35;10.30;;;6.00;;
59938;SDS011;45801;51.810;19.444;2023-02-28T08:18:02;11.40;;;6.50;;
59938;SDS011;45801;51.810;19.444;2023-02-28T08:20:29;10.20;;;5.80;;
59938;SDS011;45801;51.810;19.444;2023-02-28T08:22:55;10.80;;;5.80;;
59938;SDS011;45801;51.810;19.444;2023-02-28T08:25:31;11.50;;;6.10;;
59938;SDS011;45801;51.810;19.444;2023-02-28T08:27:58;10.50;;;5.70;;
59938;SDS011;45801;51.810;19.444;2023-02-28T08:30:25;12.20;;;6.00;;
59938;SDS011;45801;51.810;19.444;2023-02-28T08:32:51;13.20;;;6.60;;
59938;SDS011;45801;51.810;19.444;2023-02-28T08:35:18;10.30;;;6.20;;
59938;SDS011;45801;51.810;19.444;2023-02-28T08:37:45;12.30;;;6.40;;
59938;SDS011;45801;51.810;19.444;2023-02-28T08:40:14;12.70;;;6.80;;
59938;SDS011;45801;51.810;19.444;2023-02-28T08:42:45;10.90;;;6.10;;
59938;SDS011;45801;51.810;19.444;2023-02-28T08:45:12;11.60;;;6.30;;
59938;SDS011;45801;51.810;19.444;2023-02-28T08:47:39;10.90;;;7.10;;
59938;SDS011;45801;51.810;19.444;2023-02-28T08:50:07;13.40;;;7.30;;
59938;SDS011;45801;51.810;19.444;2023-02-28T08:52:34;12.10;;;7.10;;
59938;SDS011;45801;51.810;19.444;2023-02-28T08:55:00;12.90;;;7.50;;
59938;SDS011;45801;51.810;19.444;2023-02-28T08:57:27;12.30;;;6.60;;
59938;SDS011;45801;51.810;19.444;2023-02-28T08:59:54;11.70;;;7.00;;
59938;SDS011;45801;51.810;19.444;2023-02-28T09:02:20;13.10;;;6.70;;
59938;SDS011;45801;51.810;19.444;2023-02-28T09:04:47;10.70;;;6.40;;
59938;SDS011;45801;51.810;19.444;2023-02-28T09:07:13;12.70;;;6.80;;
59938;SDS011;45801;51.810;19.444;2023-02-28T09:09:40;11.60;;;6.40;;
59938;SDS011;45801;51.810;19.444;2023-02-28T09:12:20;15.10;;;7.20;;
59938;SDS011;45801;51.810;19.444;2023-02-28T09:14:48;9.60;;;6.60;;
59938;SDS011;45801;51.810;19.444;2023-02-28T09:17:14;12.40;;;6.80;;
59938;SDS011;45801;51.810;19.444;2023-02-28T09:19:41;14.70;;;8.00;;
59938;SDS011;45801;51.810;19.444;2023-02-28T09:22:09;12.50;;;6.90;;
59938;SDS011;45801;51.810;19.444;2023-02-28T09:24:37;11.90;;;6.90;;
59938;SDS011;45801;51.810;19.444;2023-02-28T09:27:04;12.30;;;6.90;;
59938;SDS011;45801;51.810;19.444;2023-02-28T09:29:32;11.90;;;5.80;;
59938;SDS011;45801;51.810;19.444;2023-02-28T09:32:00;13.80;;;6.90;;
59938;SDS011;45801;51.810;19.444;2023-02-28T09:34:27;11.90;;;6.00;;
59938;SDS011;45801;51.810;19.444;2023-02-28T09:36:56;10.60;;;6.30;;
59938;SDS011;45801;51.810;19.444;2023-02-28T09:39:23;11.40;;;7.40;;
59938;SDS011;45801;51.810;19.444;2023-02-28T09:41:51;11.60;;;6.60;;
59938;SDS011;45801;51.810;19.444;2023-02-28T09:44:31;13.50;;;6.50;;
59938;SDS011;45801;51.810;19.444;2023-02-28T09:47:48;13.60;;;7.00;;
59938;SDS011;45801;51.810;19.444;2023-02-28T09:50:00;13.90;;;7.30;;
59938;SDS011;45801;51.810;19.444;2023-02-28T09:52:49;10.90;;;6.50;;
59938;SDS011;45801;51.810;19.444;2023-02-28T09:57:49;12.70;;;7.00;;
59938;SDS011;45801;51.810;19.444;2023-02-28T10:00:24;12.20;;;7.30;;
59938;SDS011;45801;51.810;19.444;2023-02-28T10:03:21;18.60;;;9.80;;
59938;SDS011;45801;51.810;19.444;2023-02-28T10:11:28;14.40;;;8.60;;
59938;SDS011;45801;51.810;19.444;2023-02-28T10:14:20;12.50;;;7.20;;
59938;SDS011;45801;51.810;19.444;2023-02-28T10:19:43;14.10;;;8.40;;
59938;SDS011;45801;51.810;19.444;2023-02-28T10:22:21;12.50;;;7.20;;
59938;SDS011;45801;51.810;19.444;2023-02-28T10:25:05;11.80;;;6.90;;
59938;SDS011;45801;51.810;19.444;2023-02-28T10:27:49;10.80;;;5.90;;
59938;SDS011;45801;51.810;19.444;2023-02-28T10:30:19;11.40;;;6.50;;
59938;SDS011;45801;51.810;19.444;2023-02-28T10:32:48;12.70;;;7.50;;
59938;SDS011;45801;51.810;19.444;2023-02-28T10:35:18;18.00;;;8.70;;
59938;SDS011;45801;51.810;19.444;2023-02-28T10:37:48;13.70;;;7.90;;
59938;SDS011;45801;51.810;19.444;2023-02-28T10:43:03;11.80;;;7.10;;
59938;SDS011;45801;51.810;19.444;2023-02-28T10:45:39;13.10;;;7.60;;
59938;SDS011;45801;51.810;19.444;2023-02-28T10:48:58;12.10;;;7.30;;
59938;SDS011;45801;51.810;19.444;2023-02-28T10:51:39;11.30;;;7.40;;
59938;SDS011;45801;51.810;19.444;2023-02-28T10:54:27;13.10;;;6.80;;
59938;SDS011;45801;51.810;19.444;2023-02-28T10:57:19;12.20;;;6.90;;
59938;SDS011;45801;51.810;19.444;2023-02-28T11:00:14;11.40;;;6.90;;
59938;SDS011;45801;51.810;19.444;2023-02-28T11:02:45;11.70;;;6.40;;
59938;SDS011;45801;51.810;19.444;2023-02-28T11:05:32;11.20;;;6.90;;
59938;SDS011;45801;51.810;19.444;2023-02-28T11:08:06;12.70;;;7.50;;
59938;SDS011;45801;51.810;19.444;2023-02-28T11:10:43;12.60;;;7.60;;
59938;SDS011;45801;51.810;19.444;2023-02-28T11:13:17;12.60;;;7.60;;
59938;SDS011;45801;51.810;19.444;2023-02-28T11:18:22;12.20;;;8.30;;
59938;SDS011;45801;51.810;19.444;2023-02-28T11:20:54;13.30;;;9.10;;
59938;SDS011;45801;51.810;19.444;2023-02-28T11:23:24;12.50;;;7.30;;
59938;SDS011;45801;51.810;19.444;2023-02-28T11:25:54;13.40;;;8.20;;
59938;SDS011;45801;51.810;19.444;2023-02-28T11:28:32;14.50;;;8.50;;
59938;SDS011;45801;51.810;19.444;2023-02-28T11:31:03;11.90;;;7.60;;
59938;SDS011;45801;51.810;19.444;2023-02-28T11:33:45;12.60;;;8.00;;
59938;SDS011;45801;51.810;19.444;2023-02-28T11:36:27;12.80;;;8.40;;
59938;SDS011;45801;51.810;19.444;2023-02-28T11:38:58;12.40;;;7.00;;
59938;SDS011;45801;51.810;19.444;2023-02-28T12:06:30;12.10;;;8.00;;
59938;SDS011;45801;51.810;19.444;2023-02-28T12:20:09;12.60;;;7.40;;
59938;SDS011;45801;51.810;19.444;2023-02-28T12:28:38;12.50;;;7.60;;
59938;SDS011;45801;51.810;19.444;2023-02-28T12:33:43;12.20;;;7.40;;
59938;SDS011;45801;51.810;19.444;2023-02-28T12:38:51;12.60;;;7.20;;
59938;SDS011;45801;51.810;19.444;2023-02-28T12:41:26;10.80;;;6.50;;
59938;SDS011;45801;51.810;19.444;2023-02-28T12:44:01;11.60;;;7.00;;
59938;SDS011;45801;51.810;19.444;2023-02-28T12:46:33;11.10;;;7.40;;
59938;SDS011;45801;51.810;19.444;2023-02-28T12:49:15;11.00;;;7.10;;
59938;SDS011;45801;51.810;19.444;2023-02-28T12:51:46;11.10;;;6.60;;
59938;SDS011;45801;51.810;19.444;2023-02-28T12:56:54;12.60;;;6.70;;
59938;SDS011;45801;51.810;19.444;2023-02-28T13:05:34;10.70;;;6.70;;
59938;SDS011;45801;51.810;19.444;2023-02-28T13:11:25;13.10;;;7.00;;
59938;SDS011;45801;51.810;19.444;2023-02-28T13:14:02;11.10;;;6.60;;
59938;SDS011;45801;51.810;19.444;2023-02-28T13:16:55;11.80;;;7.20;;
59938;SDS011;45801;51.810;19.444;2023-02-28T13:19:25;12.70;;;7.40;;
59938;SDS011;45801;51.810;19.444;2023-02-28T13:21:54;13.30;;;7.70;;
59938;SDS011;45801;51.810;19.444;2023-02-28T13:24:40;12.10;;;7.70;;
59938;SDS011;45801;51.810;19.444;2023-02-28T13:29:39;14.90;;;7.70;;
59938;SDS011;45801;51.810;19.444;2023-02-28T13:34:36;13.00;;;8.10;;
59938;SDS011;45801;51.810;19.444;2023-02-28T13:39:45;13.50;;;8.60;;
59938;SDS011;45801;51.810;19.444;2023-02-28T13:47:29;13.40;;;8.10;;
59938;SDS011;45801;51.810;19.444;2023-02-28T13:52:50;14.50;;;8.20;;
59938;SDS011;45801;51.810;19.444;2023-02-28T13:55:25;13.30;;;8.70;;
59938;SDS011;45801;51.810;19.444;2023-02-28T14:05:41;14.00;;;9.10;;
59938;SDS011;45801;51.810;19.444;2023-02-28T14:08:13;16.00;;;9.50;;
59938;SDS011;45801;51.810;19.444;2023-02-28T14:10:45;27.20;;;17.60;;
59938;SDS011;45801;51.810;19.444;2023-02-28T14:16:13;17.70;;;13.40;;
59938;SDS011;45801;51.810;19.444;2023-02-28T14:18:56;18.50;;;13.20;;
59938;SDS011;45801;51.810;19.444;2023-02-28T14:21:33;21.20;;;14.90;;
59938;SDS011;45801;51.810;19.444;2023-02-28T14:27:24;17.00;;;11.30;;
59938;SDS011;45801;51.810;19.444;2023-02-28T14:38:29;17.10;;;10.40;;
59938;SDS011;45801;51.810;19.444;2023-02-28T14:41:00;20.50;;;11.60;;
59938;SDS011;45801;51.810;19.444;2023-02-28T14:43:32;18.00;;;10.50;;
59938;SDS011;45801;51.810;19.444;2023-02-28T14:46:00;15.90;;;10.20;;
59938;SDS011;45801;51.810;19.444;2023-02-28T14:48:28;18.60;;;12.90;;
59938;SDS011;45801;51.810;19.444;2023-02-28T14:50:55;13.70;;;9.70;;
59938;SDS011;45801;51.810;19.444;2023-02-28T14:53:26;17.10;;;11.00;;
59938;SDS011;45801;51.810;19.444;2023-02-28T14:55:55;15.20;;;9.90;;
59938;SDS011;45801;51.810;19.444;2023-02-28T14:58:26;14.40;;;9.10;;
59938;SDS011;45801;51.810;19.444;2023-02-28T15:01:01;16.70;;;9.80;;
59938;SDS011;45801;51.810;19.444;2023-02-28T15:06:03;15.80;;;10.90;;
59938;SDS011;45801;51.810;19.444;2023-02-28T15:08:32;15.80;;;9.90;;
59938;SDS011;45801;51.810;19.444;2023-02-28T15:11:02;17.30;;;9.30;;
59938;SDS011;45801;51.810;19.444;2023-02-28T15:13:41;15.30;;;9.90;;
59938;SDS011;45801;51.810;19.444;2023-02-28T15:16:16;16.30;;;10.50;;
59938;SDS011;45801;51.810;19.444;2023-02-28T15:18:57;16.00;;;10.40;;
59938;SDS011;45801;51.810;19.444;2023-02-28T15:21:35;15.20;;;9.80;;
59938;SDS011;45801;51.810;19.444;2023-02-28T15:24:20;16.40;;;10.20;;
59938;SDS011;45801;51.810;19.444;2023-02-28T15:26:57;16.50;;;10.00;;
59938;SDS011;45801;51.810;19.444;2023-02-28T15:29:27;16.40;;;10.20;;
59938;SDS011;45801;51.810;19.444;2023-02-28T15:32:02;16.20;;;9.50;;
59938;SDS011;45801;51.810;19.444;2023-02-28T15:34:38;17.10;;;10.70;;
59938;SDS011;45801;51.810;19.444;2023-02-28T15:37:24;18.80;;;10.90;;
59938;SDS011;45801;51.810;19.444;2023-02-28T15:43:04;17.50;;;11.10;;
59938;SDS011;45801;51.810;19.444;2023-02-28T15:45:34;15.50;;;10.70;;
59938;SDS011;45801;51.810;19.444;2023-02-28T15:48:05;15.50;;;11.10;;
59938;SDS011;45801;51.810;19.444;2023-02-28T15:50:40;17.20;;;10.50;;
59938;SDS011;45801;51.810;19.444;2023-02-28T15:53:17;15.40;;;10.40;;
59938;SDS011;45801;51.810;19.444;2023-02-28T15:55:52;19.10;;;11.00;;
59938;SDS011;45801;51.810;19.444;2023-02-28T15:58:22;17.10;;;11.80;;
59938;SDS011;45801;51.810;19.444;2023-02-28T16:01:01;17.40;;;11.50;;
59938;SDS011;45801;51.810;19.444;2023-02-28T16:03:37;18.30;;;12.00;;
59938;SDS011;45801;51.810;19.444;2023-02-28T16:06:20;17.00;;;11.90;;
59938;SDS011;45801;51.810;19.444;2023-02-28T16:08:53;19.90;;;11.10;;
59938;SDS011;45801;51.810;19.444;2023-02-28T16:11:22;18.80;;;11.30;;
59938;SDS011;45801;51.810;19.444;2023-02-28T16:13:50;18.20;;;11.60;;
59938;SDS011;45801;51.810;19.444;2023-02-28T16:16:19;19.60;;;11.90;;
59938;SDS011;45801;51.810;19.444;2023-02-28T16:18:48;21.70;;;12.70;;
59938;SDS011;45801;51.810;19.444;2023-02-28T16:21:15;19.20;;;12.10;;
59938;SDS011;45801;51.810;19.444;2023-02-28T16:23:42;18.00;;;12.60;;
59938;SDS011;45801;51.810;19.444;2023-02-28T16:26:10;20.60;;;14.10;;
59938;SDS011;45801;51.810;19.444;2023-02-28T16:28:45;19.60;;;13.70;;
59938;SDS011;45801;51.810;19.444;2023-02-28T16:31:12;22.00;;;13.90;;
59938;SDS011;45801;51.810;19.444;2023-02-28T16:33:43;21.00;;;14.80;;
59938;SDS011;45801;51.810;19.444;2023-02-28T16:36:14;21.60;;;14.50;;
59938;SDS011;45801;51.810;19.444;2023-02-28T16:41:12;35.60;;;19.60;;
59938;SDS011;45801;51.810;19.444;2023-02-28T16:43:46;40.00;;;23.30;;
59938;SDS011;45801;51.810;19.444;2023-02-28T16:46:15;54.20;;;28.90;;
59938;SDS011;45801;51.810;19.444;2023-02-28T16:49:03;59.30;;;30.40;;
59938;SDS011;45801;51.810;19.444;2023-02-28T16:51:30;66.60;;;31.40;;
59938;SDS011;45801;51.810;19.444;2023-02-28T16:53:57;58.50;;;30.80;;
59938;SDS011;45801;51.810;19.444;2023-02-28T16:56:23;41.20;;;22.80;;
59938;SDS011;45801;51.810;19.444;2023-02-28T16:58:51;36.10;;;20.10;;
59938;SDS011;45801;51.810;19.444;2023-02-28T17:01:25;29.30;;;17.40;;
59938;SDS011;45801;51.810;19.444;2023-02-28T17:03:53;30.10;;;17.80;;
59938;SDS011;45801;51.810;19.444;2023-02-28T17:06:21;28.20;;;17.10;;
59938;SDS011;45801;51.810;19.444;2023-02-28T17:08:50;31.10;;;18.90;;
59938;SDS011;45801;51.810;19.444;2023-02-28T17:11:22;36.10;;;20.30;;
59938;SDS011;45801;51.810;19.444;2023-02-28T17:13:50;29.70;;;18.10;;
59938;SDS011;45801;51.810;19.444;2023-02-28T17:16:26;29.30;;;17.20;;
59938;SDS011;45801;51.810;19.444;2023-02-28T17:19:00;29.00;;;16.90;;
59938;SDS011;45801;51.810;19.444;2023-02-28T17:21:29;30.60;;;19.60;;
59938;SDS011;45801;51.810;19.444;2023-02-28T17:23:57;32.10;;;19.90;;